sensor_id;sensor_type;location;lat;lon;timestamp;temperature;humidity
78731;SHT31;68055;51.978;5.658;2023-04-25T00:01:36;10.6;63.7
78731;SHT31;68055;51.978;5.658;2023-04-25T00:04:06;10.6;64.1
78731;SHT31;68055;51.978;5.658;2023-04-25T00:06:39;10.6;64.0
78731;SHT31;68055;51.978;5.658;2023-04-25T00:09:09;10.6;64.1
78731;SHT31;68055;51.978;5.658;2023-04-25T00:11:39;10.6;64.0
78731;SHT31;68055;51.978;5.658;2023-04-25T00:14:09;10.6;63.4
78731;SHT31;68055;51.978;5.658;2023-04-25T00:16:39;10.6;63.5
78731;SHT31;68055;51.978;5.658;2023-04-25T00:19:11;10.6;63.6
78731;SHT31;68055;51.978;5.658;2023-04-25T00:21:41;10.6;63.3
78731;SHT31;68055;51.978;5.658;2023-04-25T00:24:13;10.5;63.3
78731;SHT31;68055;51.978;5.658;2023-04-25T00:26:45;10.5;63.0
78731;SHT31;68055;51.978;5.658;2023-04-25T00:29:15;10.5;63.2
78731;SHT31;68055;51.978;5.658;2023-04-25T00:31:44;10.5;62.9
78731;SHT31;68055;51.978;5.658;2023-04-25T00:34:14;10.5;63.0
78731;SHT31;68055;51.978;5.658;2023-04-25T00:36:44;10.5;63.3
78731;SHT31;68055;51.978;5.658;2023-04-25T00:39:16;10.5;62.6
78731;SHT31;68055;51.978;5.658;2023-04-25T00:41:46;10.4;62.5
78731;SHT31;68055;51.978;5.658;2023-04-25T00:44:20;10.4;62.9
78731;SHT31;68055;51.978;5.658;2023-04-25T00:46:52;10.4;62.4
78731;SHT31;68055;51.978;5.658;2023-04-25T00:49:23;10.4;63.0
78731;SHT31;68055;51.978;5.658;2023-04-25T00:51:52;10.4;62.5
78731;SHT31;68055;51.978;5.658;2023-04-25T00:54:22;10.3;62.9
78731;SHT31;68055;51.978;5.658;2023-04-25T00:56:54;10.3;62.4
78731;SHT31;68055;51.978;5.658;2023-04-25T00:59:25;10.3;62.3
78731;SHT31;68055;51.978;5.658;2023-04-25T01:01:57;10.3;62.0
78731;SHT31;68055;51.978;5.658;2023-04-25T01:04:28;10.3;61.8
78731;SHT31;68055;51.978;5.658;2023-04-25T01:06:58;10.3;62.0
78731;SHT31;68055;51.978;5.658;2023-04-25T01:09:31;10.3;62.4
78731;SHT31;68055;51.978;5.658;2023-04-25T01:12:02;10.4;61.7
78731;SHT31;68055;51.978;5.658;2023-04-25T01:14:33;10.5;61.2
78731;SHT31;68055;51.978;5.658;2023-04-25T01:17:02;10.6;60.5
78731;SHT31;68055;51.978;5.658;2023-04-25T01:19:32;10.7;60.5
78731;SHT31;68055;51.978;5.658;2023-04-25T01:22:03;10.7;60.3
78731;SHT31;68055;51.978;5.658;2023-04-25T01:24:33;10.7;60.7
78731;SHT31;68055;51.978;5.658;2023-04-25T01:27:03;10.7;60.9
78731;SHT31;68055;51.978;5.658;2023-04-25T01:29:35;10.7;60.7
78731;SHT31;68055;51.978;5.658;2023-04-25T01:32:05;10.7;60.6
78731;SHT31;68055;51.978;5.658;2023-04-25T01:34:35;10.7;60.2
78731;SHT31;68055;51.978;5.658;2023-04-25T01:37:05;10.7;60.5
78731;SHT31;68055;51.978;5.658;2023-04-25T01:39:37;10.7;60.7
78731;SHT31;68055;51.978;5.658;2023-04-25T01:42:09;10.7;60.6
78731;SHT31;68055;51.978;5.658;2023-04-25T01:44:38;10.7;60.4
78731;SHT31;68055;51.978;5.658;2023-04-25T01:47:08;10.7;60.6
78731;SHT31;68055;51.978;5.658;2023-04-25T01:49:37;10.7;60.2
78731;SHT31;68055;51.978;5.658;2023-04-25T01:52:09;10.7;59.8
78731;SHT31;68055;51.978;5.658;2023-04-25T01:54:39;10.7;60.2
78731;SHT31;68055;51.978;5.658;2023-04-25T01:57:12;10.7;60.4
78731;SHT31;68055;51.978;5.658;2023-04-25T01:59:43;10.7;60.6
78731;SHT31;68055;51.978;5.658;2023-04-25T02:02:13;10.7;60.3
78731;SHT31;68055;51.978;5.658;2023-04-25T02:04:43;10.6;59.7
78731;SHT31;68055;51.978;5.658;2023-04-25T02:07:14;10.6;59.1
78731;SHT31;68055;51.978;5.658;2023-04-25T02:09:44;10.6;59.1
78731;SHT31;68055;51.978;5.658;2023-04-25T02:12:13;10.6;59.3
78731;SHT31;68055;51.978;5.658;2023-04-25T02:14:43;10.5;59.6
78731;SHT31;68055;51.978;5.658;2023-04-25T02:17:13;10.5;60.0
78731;SHT31;68055;51.978;5.658;2023-04-25T02:19:44;10.4;59.2
78731;SHT31;68055;51.978;5.658;2023-04-25T02:22:14;10.4;59.6
78731;SHT31;68055;51.978;5.658;2023-04-25T02:24:44;10.3;59.7
78731;SHT31;68055;51.978;5.658;2023-04-25T02:27:13;10.3;60.2
78731;SHT31;68055;51.978;5.658;2023-04-25T02:29:45;10.3;59.9
78731;SHT31;68055;51.978;5.658;2023-04-25T02:32:14;10.2;59.3
78731;SHT31;68055;51.978;5.658;2023-04-25T02:34:44;10.2;59.9
78731;SHT31;68055;51.978;5.658;2023-04-25T02:37:13;10.2;59.1
78731;SHT31;68055;51.978;5.658;2023-04-25T02:39:43;10.1;59.8
78731;SHT31;68055;51.978;5.658;2023-04-25T02:42:13;10.1;59.8
78731;SHT31;68055;51.978;5.658;2023-04-25T02:44:43;10.1;59.5
78731;SHT31;68055;51.978;5.658;2023-04-25T02:47:12;10.0;59.4
78731;SHT31;68055;51.978;5.658;2023-04-25T02:49:42;10.0;60.3
78731;SHT31;68055;51.978;5.658;2023-04-25T02:52:13;9.9;60.4
78731;SHT31;68055;51.978;5.658;2023-04-25T02:54:42;9.9;60.4
78731;SHT31;68055;51.978;5.658;2023-04-25T02:57:12;9.9;60.6
78731;SHT31;68055;51.978;5.658;2023-04-25T02:59:44;9.8;60.2
78731;SHT31;68055;51.978;5.658;2023-04-25T03:02:13;9.8;60.2
78731;SHT31;68055;51.978;5.658;2023-04-25T03:04:43;9.8;60.8
78731;SHT31;68055;51.978;5.658;2023-04-25T03:07:15;9.8;61.1
78731;SHT31;68055;51.978;5.658;2023-04-25T03:09:45;9.8;60.9
78731;SHT31;68055;51.978;5.658;2023-04-25T03:12:15;9.8;61.0
78731;SHT31;68055;51.978;5.658;2023-04-25T03:14:44;9.7;61.2
78731;SHT31;68055;51.978;5.658;2023-04-25T03:17:14;9.7;61.2
78731;SHT31;68055;51.978;5.658;2023-04-25T03:19:43;9.7;61.0
78731;SHT31;68055;51.978;5.658;2023-04-25T03:22:13;9.7;60.5
78731;SHT31;68055;51.978;5.658;2023-04-25T03:24:43;9.7;61.0
78731;SHT31;68055;51.978;5.658;2023-04-25T03:27:13;9.7;61.2
78731;SHT31;68055;51.978;5.658;2023-04-25T03:29:43;9.7;60.9
78731;SHT31;68055;51.978;5.658;2023-04-25T03:32:12;9.8;60.9
78731;SHT31;68055;51.978;5.658;2023-04-25T03:34:42;9.8;61.1
78731;SHT31;68055;51.978;5.658;2023-04-25T03:37:12;9.8;61.5
78731;SHT31;68055;51.978;5.658;2023-04-25T03:39:42;9.8;61.4
78731;SHT31;68055;51.978;5.658;2023-04-25T03:42:12;9.8;61.3
78731;SHT31;68055;51.978;5.658;2023-04-25T03:44:42;9.9;61.2
78731;SHT31;68055;51.978;5.658;2023-04-25T03:47:11;9.9;61.0
78731;SHT31;68055;51.978;5.658;2023-04-25T03:49:41;9.9;60.2
78731;SHT31;68055;51.978;5.658;2023-04-25T03:52:12;9.9;60.5
78731;SHT31;68055;51.978;5.658;2023-04-25T03:54:44;9.9;60.0
78731;SHT31;68055;51.978;5.658;2023-04-25T03:57:13;9.9;60.3
78731;SHT31;68055;51.978;5.658;2023-04-25T03:59:43;9.9;59.9
78731;SHT31;68055;51.978;5.658;2023-04-25T04:02:13;9.9;59.7
78731;SHT31;68055;51.978;5.658;2023-04-25T04:04:43;9.9;59.9
78731;SHT31;68055;51.978;5.658;2023-04-25T04:07:13;9.8;60.4
78731;SHT31;68055;51.978;5.658;2023-04-25T04:09:43;9.8;60.3
78731;SHT31;68055;51.978;5.658;2023-04-25T04:12:13;9.8;60.6
78731;SHT31;68055;51.978;5.658;2023-04-25T04:14:42;9.8;60.4
78731;SHT31;68055;51.978;5.658;2023-04-25T04:17:12;9.7;60.6
78731;SHT31;68055;51.978;5.658;2023-04-25T04:19:42;9.7;60.9
78731;SHT31;68055;51.978;5.658;2023-04-25T04:22:11;9.7;60.9
78731;SHT31;68055;51.978;5.658;2023-04-25T04:24:41;9.7;61.4
78731;SHT31;68055;51.978;5.658;2023-04-25T04:27:13;9.8;61.6
78731;SHT31;68055;51.978;5.658;2023-04-25T04:29:45;9.9;61.0
78731;SHT31;68055;51.978;5.658;2023-04-25T04:32:16;10.0;60.2
78731;SHT31;68055;51.978;5.658;2023-04-25T04:34:45;10.1;59.7
78731;SHT31;68055;51.978;5.658;2023-04-25T04:37:16;10.2;59.3
78731;SHT31;68055;51.978;5.658;2023-04-25T04:39:46;10.3;58.7
78731;SHT31;68055;51.978;5.658;2023-04-25T04:42:17;10.3;58.1
78731;SHT31;68055;51.978;5.658;2023-04-25T04:44:48;10.3;58.4
78731;SHT31;68055;51.978;5.658;2023-04-25T04:47:19;10.3;57.8
78731;SHT31;68055;51.978;5.658;2023-04-25T04:49:51;10.3;57.8
78731;SHT31;68055;51.978;5.658;2023-04-25T04:52:20;10.2;58.5
78731;SHT31;68055;51.978;5.658;2023-04-25T04:54:50;10.2;58.2
78731;SHT31;68055;51.978;5.658;2023-04-25T04:57:19;10.2;58.3
78731;SHT31;68055;51.978;5.658;2023-04-25T04:59:49;10.2;58.6
78731;SHT31;68055;51.978;5.658;2023-04-25T05:02:19;10.2;58.8
78731;SHT31;68055;51.978;5.658;2023-04-25T05:04:49;10.2;58.7
78731;SHT31;68055;51.978;5.658;2023-04-25T05:07:19;10.2;59.4
78731;SHT31;68055;51.978;5.658;2023-04-25T05:09:49;10.2;59.4
78731;SHT31;68055;51.978;5.658;2023-04-25T05:12:19;10.2;59.6
78731;SHT31;68055;51.978;5.658;2023-04-25T05:14:48;10.2;59.6
78731;SHT31;68055;51.978;5.658;2023-04-25T05:17:18;10.2;59.6
78731;SHT31;68055;51.978;5.658;2023-04-25T05:19:47;10.2;59.5
78731;SHT31;68055;51.978;5.658;2023-04-25T05:22:17;10.2;59.5
78731;SHT31;68055;51.978;5.658;2023-04-25T05:24:46;10.3;59.2
78731;SHT31;68055;51.978;5.658;2023-04-25T05:27:18;10.3;59.2
78731;SHT31;68055;51.978;5.658;2023-04-25T05:29:48;10.3;59.0
78731;SHT31;68055;51.978;5.658;2023-04-25T05:32:18;10.3;59.0
78731;SHT31;68055;51.978;5.658;2023-04-25T05:34:48;10.3;59.2
78731;SHT31;68055;51.978;5.658;2023-04-25T05:37:17;10.3;59.0
78731;SHT31;68055;51.978;5.658;2023-04-25T05:39:47;10.3;58.8
78731;SHT31;68055;51.978;5.658;2023-04-25T05:42:17;10.3;58.4
78731;SHT31;68055;51.978;5.658;2023-04-25T05:44:47;10.3;58.7
78731;SHT31;68055;51.978;5.658;2023-04-25T05:47:16;10.3;59.1
78731;SHT31;68055;51.978;5.658;2023-04-25T05:49:46;10.3;58.9
78731;SHT31;68055;51.978;5.658;2023-04-25T05:52:15;10.3;58.9
78731;SHT31;68055;51.978;5.658;2023-04-25T05:54:45;10.3;59.3
78731;SHT31;68055;51.978;5.658;2023-04-25T05:57:21;10.3;58.8
78731;SHT31;68055;51.978;5.658;2023-04-25T05:59:52;10.4;59.5
78731;SHT31;68055;51.978;5.658;2023-04-25T06:02:22;10.4;58.7
78731;SHT31;68055;51.978;5.658;2023-04-25T06:04:52;10.4;58.5
78731;SHT31;68055;51.978;5.658;2023-04-25T06:07:22;10.4;58.4
78731;SHT31;68055;51.978;5.658;2023-04-25T06:09:52;10.4;59.5
78731;SHT31;68055;51.978;5.658;2023-04-25T06:12:21;10.4;59.3
78731;SHT31;68055;51.978;5.658;2023-04-25T06:14:51;10.5;59.1
78731;SHT31;68055;51.978;5.658;2023-04-25T06:17:20;10.5;58.9
78731;SHT31;68055;51.978;5.658;2023-04-25T06:19:50;10.6;58.2
78731;SHT31;68055;51.978;5.658;2023-04-25T06:22:20;10.7;59.0
78731;SHT31;68055;51.978;5.658;2023-04-25T06:24:49;10.8;58.9
78731;SHT31;68055;51.978;5.658;2023-04-25T06:27:19;10.8;58.2
78731;SHT31;68055;51.978;5.658;2023-04-25T06:29:49;10.9;57.6
78731;SHT31;68055;51.978;5.658;2023-04-25T06:32:18;11.0;57.2
78731;SHT31;68055;51.978;5.658;2023-04-25T06:34:48;11.0;57.2
78731;SHT31;68055;51.978;5.658;2023-04-25T06:37:18;11.1;57.5
78731;SHT31;68055;51.978;5.658;2023-04-25T06:39:47;11.1;57.1
78731;SHT31;68055;51.978;5.658;2023-04-25T06:42:17;11.2;57.1
78731;SHT31;68055;51.978;5.658;2023-04-25T06:44:47;11.3;56.7
78731;SHT31;68055;51.978;5.658;2023-04-25T06:47:16;11.3;57.1
78731;SHT31;68055;51.978;5.658;2023-04-25T06:49:46;11.4;57.0
78731;SHT31;68055;51.978;5.658;2023-04-25T06:52:15;11.4;56.7
78731;SHT31;68055;51.978;5.658;2023-04-25T06:54:46;11.5;56.3
78731;SHT31;68055;51.978;5.658;2023-04-25T06:57:17;11.6;55.5
78731;SHT31;68055;51.978;5.658;2023-04-25T06:59:47;11.7;55.5
78731;SHT31;68055;51.978;5.658;2023-04-25T07:02:16;11.7;55.4
78731;SHT31;68055;51.978;5.658;2023-04-25T07:04:46;11.8;54.6
78731;SHT31;68055;51.978;5.658;2023-04-25T07:07:16;11.8;54.8
78731;SHT31;68055;51.978;5.658;2023-04-25T07:09:46;11.9;54.3
78731;SHT31;68055;51.978;5.658;2023-04-25T07:12:16;11.9;53.3
78731;SHT31;68055;51.978;5.658;2023-04-25T07:14:46;12.0;53.4
78731;SHT31;68055;51.978;5.658;2023-04-25T07:17:15;12.0;53.7
78731;SHT31;68055;51.978;5.658;2023-04-25T07:19:45;12.1;53.5
78731;SHT31;68055;51.978;5.658;2023-04-25T07:22:14;12.1;53.2
78731;SHT31;68055;51.978;5.658;2023-04-25T07:24:44;12.2;52.9
78731;SHT31;68055;51.978;5.658;2023-04-25T07:27:16;12.3;53.0
78731;SHT31;68055;51.978;5.658;2023-04-25T07:29:45;12.4;53.4
78731;SHT31;68055;51.978;5.658;2023-04-25T07:32:15;12.6;52.7
78731;SHT31;68055;51.978;5.658;2023-04-25T07:34:45;12.8;50.8
78731;SHT31;68055;51.978;5.658;2023-04-25T07:37:15;12.9;51.0
78731;SHT31;68055;51.978;5.658;2023-04-25T07:39:46;13.0;50.8
78731;SHT31;68055;51.978;5.658;2023-04-25T07:42:15;13.1;51.2
78731;SHT31;68055;51.978;5.658;2023-04-25T07:44:45;13.3;50.8
78731;SHT31;68055;51.978;5.658;2023-04-25T07:47:17;13.6;50.2
78731;SHT31;68055;51.978;5.658;2023-04-25T07:49:47;13.7;48.5
78731;SHT31;68055;51.978;5.658;2023-04-25T07:52:17;13.8;49.4
78731;SHT31;68055;51.978;5.658;2023-04-25T07:54:47;13.9;48.2
78731;SHT31;68055;51.978;5.658;2023-04-25T07:57:16;13.9;48.3
78731;SHT31;68055;51.978;5.658;2023-04-25T07:59:48;13.9;48.4
78731;SHT31;68055;51.978;5.658;2023-04-25T08:02:18;14.0;48.5
78731;SHT31;68055;51.978;5.658;2023-04-25T08:04:47;14.1;49.2
78731;SHT31;68055;51.978;5.658;2023-04-25T08:07:18;14.1;47.4
78731;SHT31;68055;51.978;5.658;2023-04-25T08:09:47;14.2;47.5
78731;SHT31;68055;51.978;5.658;2023-04-25T08:12:17;14.3;47.6
78731;SHT31;68055;51.978;5.658;2023-04-25T08:14:46;14.4;47.5
78731;SHT31;68055;51.978;5.658;2023-04-25T08:17:16;14.5;46.4
78731;SHT31;68055;51.978;5.658;2023-04-25T08:19:45;14.7;46.0
78731;SHT31;68055;51.978;5.658;2023-04-25T08:22:15;14.7;45.0
78731;SHT31;68055;51.978;5.658;2023-04-25T08:24:47;14.8;42.8
78731;SHT31;68055;51.978;5.658;2023-04-25T08:27:17;14.8;44.3
78731;SHT31;68055;51.978;5.658;2023-04-25T08:29:48;14.8;43.5
78731;SHT31;68055;51.978;5.658;2023-04-25T08:32:18;14.9;44.0
78731;SHT31;68055;51.978;5.658;2023-04-25T08:34:48;14.9;44.0
78731;SHT31;68055;51.978;5.658;2023-04-25T08:37:21;15.0;44.6
78731;SHT31;68055;51.978;5.658;2023-04-25T08:39:51;15.1;42.4
78731;SHT31;68055;51.978;5.658;2023-04-25T08:42:26;15.1;41.4
78731;SHT31;68055;51.978;5.658;2023-04-25T08:44:57;15.2;41.1
78731;SHT31;68055;51.978;5.658;2023-04-25T08:47:30;15.2;40.5
78731;SHT31;68055;51.978;5.658;2023-04-25T08:50:04;15.2;42.7
78731;SHT31;68055;51.978;5.658;2023-04-25T08:52:36;15.3;40.7
78731;SHT31;68055;51.978;5.658;2023-04-25T08:55:09;15.3;40.7
78731;SHT31;68055;51.978;5.658;2023-04-25T08:57:40;15.5;41.5
78731;SHT31;68055;51.978;5.658;2023-04-25T09:00:13;15.6;41.3
78731;SHT31;68055;51.978;5.658;2023-04-25T09:02:43;15.7;38.8
78731;SHT31;68055;51.978;5.658;2023-04-25T09:05:14;15.8;38.8
78731;SHT31;68055;51.978;5.658;2023-04-25T09:07:43;15.8;40.2
78731;SHT31;68055;51.978;5.658;2023-04-25T09:10:13;15.7;41.8
78731;SHT31;68055;51.978;5.658;2023-04-25T09:12:44;15.3;42.6
78731;SHT31;68055;51.978;5.658;2023-04-25T09:15:15;14.9;44.8
78731;SHT31;68055;51.978;5.658;2023-04-25T09:17:44;14.6;43.9
78731;SHT31;68055;51.978;5.658;2023-04-25T09:20:14;14.4;42.9
78731;SHT31;68055;51.978;5.658;2023-04-25T09:22:45;14.3;44.7
78731;SHT31;68055;51.978;5.658;2023-04-25T09:25:15;14.2;46.2
78731;SHT31;68055;51.978;5.658;2023-04-25T09:27:53;14.1;47.7
78731;SHT31;68055;51.978;5.658;2023-04-25T09:30:31;14.1;47.0
78731;SHT31;68055;51.978;5.658;2023-04-25T09:33:06;14.1;48.3
78731;SHT31;68055;51.978;5.658;2023-04-25T09:35:40;14.3;44.6
78731;SHT31;68055;51.978;5.658;2023-04-25T09:38:14;14.4;44.6
78731;SHT31;68055;51.978;5.658;2023-04-25T09:40:46;14.6;45.9
78731;SHT31;68055;51.978;5.658;2023-04-25T09:43:21;14.7;42.1
78731;SHT31;68055;51.978;5.658;2023-04-25T09:45:53;14.9;42.5
78731;SHT31;68055;51.978;5.658;2023-04-25T09:48:26;15.0;41.7
78731;SHT31;68055;51.978;5.658;2023-04-25T09:51:14;15.4;40.5
78731;SHT31;68055;51.978;5.658;2023-04-25T09:53:45;15.9;38.4
78731;SHT31;68055;51.978;5.658;2023-04-25T09:56:18;16.3;38.7
78731;SHT31;68055;51.978;5.658;2023-04-25T09:58:50;16.7;38.5
78731;SHT31;68055;51.978;5.658;2023-04-25T10:01:23;17.3;35.8
78731;SHT31;68055;51.978;5.658;2023-04-25T10:03:58;17.7;35.6
78731;SHT31;68055;51.978;5.658;2023-04-25T10:06:28;17.8;35.7
78731;SHT31;68055;51.978;5.658;2023-04-25T10:08:59;17.8;35.2
78731;SHT31;68055;51.978;5.658;2023-04-25T10:11:32;17.8;35.2
78731;SHT31;68055;51.978;5.658;2023-04-25T10:14:02;17.7;34.3
78731;SHT31;68055;51.978;5.658;2023-04-25T10:16:34;17.5;34.5
78731;SHT31;68055;51.978;5.658;2023-04-25T10:19:04;17.3;34.7
78731;SHT31;68055;51.978;5.658;2023-04-25T10:21:40;17.1;32.9
78731;SHT31;68055;51.978;5.658;2023-04-25T10:24:14;16.9;34.2
78731;SHT31;68055;51.978;5.658;2023-04-25T10:26:44;16.8;35.8
78731;SHT31;68055;51.978;5.658;2023-04-25T10:29:24;16.6;36.7
78731;SHT31;68055;51.978;5.658;2023-04-25T10:31:54;16.4;37.0
78731;SHT31;68055;51.978;5.658;2023-04-25T10:34:41;16.3;36.5
78731;SHT31;68055;51.978;5.658;2023-04-25T10:37:14;16.2;37.2
78731;SHT31;68055;51.978;5.658;2023-04-25T10:39:46;16.1;37.4
78731;SHT31;68055;51.978;5.658;2023-04-25T10:42:15;16.0;38.2
78731;SHT31;68055;51.978;5.658;2023-04-25T10:45:04;16.0;37.0
78731;SHT31;68055;51.978;5.658;2023-04-25T10:47:44;16.0;38.6
78731;SHT31;68055;51.978;5.658;2023-04-25T10:50:15;16.0;37.6
78731;SHT31;68055;51.978;5.658;2023-04-25T10:52:45;16.0;35.9
78731;SHT31;68055;51.978;5.658;2023-04-25T10:55:15;16.0;36.6
78731;SHT31;68055;51.978;5.658;2023-04-25T10:57:45;16.0;36.8
78731;SHT31;68055;51.978;5.658;2023-04-25T11:00:19;16.0;36.0
78731;SHT31;68055;51.978;5.658;2023-04-25T11:02:53;16.0;37.3
78731;SHT31;68055;51.978;5.658;2023-04-25T11:05:32;16.0;36.5
78731;SHT31;68055;51.978;5.658;2023-04-25T11:08:02;16.0;37.2
78731;SHT31;68055;51.978;5.658;2023-04-25T11:10:35;16.1;35.3
78731;SHT31;68055;51.978;5.658;2023-04-25T11:13:07;16.1;35.3
78731;SHT31;68055;51.978;5.658;2023-04-25T11:15:39;16.2;35.4
78731;SHT31;68055;51.978;5.658;2023-04-25T11:18:08;16.3;35.8
78731;SHT31;68055;51.978;5.658;2023-04-25T11:20:38;16.3;33.9
78731;SHT31;68055;51.978;5.658;2023-04-25T11:23:08;16.4;33.0
78731;SHT31;68055;51.978;5.658;2023-04-25T11:25:38;16.4;34.3
78731;SHT31;68055;51.978;5.658;2023-04-25T11:28:07;16.5;34.9
78731;SHT31;68055;51.978;5.658;2023-04-25T11:30:37;16.5;34.2
78731;SHT31;68055;51.978;5.658;2023-04-25T11:33:09;16.5;35.5
78731;SHT31;68055;51.978;5.658;2023-04-25T11:35:40;16.6;34.5
78731;SHT31;68055;51.978;5.658;2023-04-25T11:38:10;16.6;35.5
78731;SHT31;68055;51.978;5.658;2023-04-25T11:40:42;16.7;35.0
78731;SHT31;68055;51.978;5.658;2023-04-25T11:43:11;16.7;33.5
78731;SHT31;68055;51.978;5.658;2023-04-25T11:45:41;16.8;33.9
78731;SHT31;68055;51.978;5.658;2023-04-25T11:48:15;16.8;32.7
78731;SHT31;68055;51.978;5.658;2023-04-25T11:50:45;16.8;33.4
78731;SHT31;68055;51.978;5.658;2023-04-25T11:53:17;16.7;34.8
78731;SHT31;68055;51.978;5.658;2023-04-25T11:55:47;16.7;36.7
78731;SHT31;68055;51.978;5.658;2023-04-25T11:58:17;16.6;37.2
78731;SHT31;68055;51.978;5.658;2023-04-25T12:00:47;16.4;37.8
78731;SHT31;68055;51.978;5.658;2023-04-25T12:03:18;16.1;38.4
78731;SHT31;68055;51.978;5.658;2023-04-25T12:05:51;15.9;38.0
78731;SHT31;68055;51.978;5.658;2023-04-25T12:08:21;15.7;38.4
78731;SHT31;68055;51.978;5.658;2023-04-25T12:10:50;15.5;40.8
78731;SHT31;68055;51.978;5.658;2023-04-25T12:13:24;15.3;41.1
78731;SHT31;68055;51.978;5.658;2023-04-25T12:15:55;15.3;41.0
78731;SHT31;68055;51.978;5.658;2023-04-25T12:18:25;15.2;40.9
78731;SHT31;68055;51.978;5.658;2023-04-25T12:20:56;15.2;42.1
78731;SHT31;68055;51.978;5.658;2023-04-25T12:23:29;15.2;41.1
78731;SHT31;68055;51.978;5.658;2023-04-25T12:25:59;15.2;40.3
78731;SHT31;68055;51.978;5.658;2023-04-25T12:28:32;15.2;40.6
78731;SHT31;68055;51.978;5.658;2023-04-25T12:31:03;15.3;40.0
78731;SHT31;68055;51.978;5.658;2023-04-25T12:33:35;15.3;37.8
78731;SHT31;68055;51.978;5.658;2023-04-25T12:36:06;15.3;38.4
78731;SHT31;68055;51.978;5.658;2023-04-25T12:38:40;15.4;37.6
78731;SHT31;68055;51.978;5.658;2023-04-25T12:41:10;15.4;36.1
78731;SHT31;68055;51.978;5.658;2023-04-25T12:43:40;15.5;35.8
78731;SHT31;68055;51.978;5.658;2023-04-25T12:46:10;15.5;36.9
78731;SHT31;68055;51.978;5.658;2023-04-25T12:48:39;15.5;37.3
78731;SHT31;68055;51.978;5.658;2023-04-25T12:51:09;15.5;37.2
78731;SHT31;68055;51.978;5.658;2023-04-25T12:53:41;15.5;37.6
78731;SHT31;68055;51.978;5.658;2023-04-25T12:56:10;15.5;39.2
78731;SHT31;68055;51.978;5.658;2023-04-25T12:58:40;15.5;39.3
78731;SHT31;68055;51.978;5.658;2023-04-25T13:01:11;15.5;41.3
78731;SHT31;68055;51.978;5.658;2023-04-25T13:03:41;15.5;41.2
78731;SHT31;68055;51.978;5.658;2023-04-25T13:06:11;15.5;39.6
78731;SHT31;68055;51.978;5.658;2023-04-25T13:08:41;15.4;38.5
78731;SHT31;68055;51.978;5.658;2023-04-25T13:11:11;15.4;38.7
78731;SHT31;68055;51.978;5.658;2023-04-25T13:13:43;15.4;40.1
78731;SHT31;68055;51.978;5.658;2023-04-25T13:16:15;15.4;39.1
78731;SHT31;68055;51.978;5.658;2023-04-25T13:18:48;15.4;38.5
78731;SHT31;68055;51.978;5.658;2023-04-25T13:21:19;15.4;37.2
78731;SHT31;68055;51.978;5.658;2023-04-25T13:23:49;15.4;37.3
78731;SHT31;68055;51.978;5.658;2023-04-25T13:26:18;15.4;36.7
78731;SHT31;68055;51.978;5.658;2023-04-25T13:28:48;15.4;36.2
78731;SHT31;68055;51.978;5.658;2023-04-25T13:31:17;15.4;35.7
78731;SHT31;68055;51.978;5.658;2023-04-25T13:33:47;15.3;37.1
78731;SHT31;68055;51.978;5.658;2023-04-25T13:36:17;15.3;37.0
78731;SHT31;68055;51.978;5.658;2023-04-25T13:38:48;15.3;36.6
78731;SHT31;68055;51.978;5.658;2023-04-25T13:41:18;15.3;36.5
78731;SHT31;68055;51.978;5.658;2023-04-25T13:43:48;15.3;38.6
78731;SHT31;68055;51.978;5.658;2023-04-25T13:46:17;15.3;36.9
78731;SHT31;68055;51.978;5.658;2023-04-25T13:48:48;15.3;37.1
78731;SHT31;68055;51.978;5.658;2023-04-25T13:51:17;15.3;38.1
78731;SHT31;68055;51.978;5.658;2023-04-25T13:53:48;15.4;37.3
78731;SHT31;68055;51.978;5.658;2023-04-25T13:56:18;15.4;36.3
78731;SHT31;68055;51.978;5.658;2023-04-25T13:58:50;15.5;36.8
78731;SHT31;68055;51.978;5.658;2023-04-25T14:01:19;15.5;37.1
78731;SHT31;68055;51.978;5.658;2023-04-25T14:03:49;15.5;38.1
78731;SHT31;68055;51.978;5.658;2023-04-25T14:06:19;15.4;38.5
78731;SHT31;68055;51.978;5.658;2023-04-25T14:08:51;15.4;37.9
78731;SHT31;68055;51.978;5.658;2023-04-25T14:11:20;15.3;38.2
78731;SHT31;68055;51.978;5.658;2023-04-25T14:13:50;15.3;38.2
78731;SHT31;68055;51.978;5.658;2023-04-25T14:16:20;15.2;37.8
78731;SHT31;68055;51.978;5.658;2023-04-25T14:18:50;15.1;38.2
78731;SHT31;68055;51.978;5.658;2023-04-25T14:21:20;15.1;37.6
78731;SHT31;68055;51.978;5.658;2023-04-25T14:23:49;15.1;36.9
78731;SHT31;68055;51.978;5.658;2023-04-25T14:26:19;15.0;37.7
78731;SHT31;68055;51.978;5.658;2023-04-25T14:28:50;15.0;37.2
78731;SHT31;68055;51.978;5.658;2023-04-25T14:31:21;14.9;37.7
78731;SHT31;68055;51.978;5.658;2023-04-25T14:33:53;14.9;38.5
78731;SHT31;68055;51.978;5.658;2023-04-25T14:36:22;14.9;38.1
78731;SHT31;68055;51.978;5.658;2023-04-25T14:38:53;14.9;37.3
78731;SHT31;68055;51.978;5.658;2023-04-25T14:41:23;14.9;37.4
78731;SHT31;68055;51.978;5.658;2023-04-25T14:43:53;14.9;37.5
78731;SHT31;68055;51.978;5.658;2023-04-25T14:46:24;14.9;37.8
78731;SHT31;68055;51.978;5.658;2023-04-25T14:48:55;14.9;37.7
78731;SHT31;68055;51.978;5.658;2023-04-25T14:51:25;14.9;37.7
78731;SHT31;68055;51.978;5.658;2023-04-25T14:53:54;14.8;37.0
78731;SHT31;68055;51.978;5.658;2023-04-25T14:56:27;14.8;35.8
78731;SHT31;68055;51.978;5.658;2023-04-25T14:58:56;14.7;36.9
78731;SHT31;68055;51.978;5.658;2023-04-25T15:01:28;14.7;37.0
78731;SHT31;68055;51.978;5.658;2023-04-25T15:03:58;14.6;37.0
78731;SHT31;68055;51.978;5.658;2023-04-25T15:06:28;14.6;36.7
78731;SHT31;68055;51.978;5.658;2023-04-25T15:08:58;14.6;36.8
78731;SHT31;68055;51.978;5.658;2023-04-25T15:11:30;14.6;37.6
78731;SHT31;68055;51.978;5.658;2023-04-25T15:14:02;14.6;37.1
78731;SHT31;68055;51.978;5.658;2023-04-25T15:16:31;14.6;36.8
78731;SHT31;68055;51.978;5.658;2023-04-25T15:19:01;14.6;36.9
78731;SHT31;68055;51.978;5.658;2023-04-25T15:21:33;14.6;36.3
78731;SHT31;68055;51.978;5.658;2023-04-25T15:24:03;14.6;36.9
78731;SHT31;68055;51.978;5.658;2023-04-25T15:26:35;14.7;38.2
78731;SHT31;68055;51.978;5.658;2023-04-25T15:29:05;14.7;39.2
78731;SHT31;68055;51.978;5.658;2023-04-25T15:31:35;14.7;39.1
78731;SHT31;68055;51.978;5.658;2023-04-25T15:34:04;14.7;39.6
78731;SHT31;68055;51.978;5.658;2023-04-25T15:36:34;14.6;39.3
78731;SHT31;68055;51.978;5.658;2023-04-25T15:39:04;14.6;39.3
78731;SHT31;68055;51.978;5.658;2023-04-25T15:41:36;14.5;39.1
78731;SHT31;68055;51.978;5.658;2023-04-25T15:44:07;14.5;38.3
78731;SHT31;68055;51.978;5.658;2023-04-25T15:46:37;14.4;37.8
78731;SHT31;68055;51.978;5.658;2023-04-25T15:49:07;14.3;38.9
78731;SHT31;68055;51.978;5.658;2023-04-25T15:51:37;14.2;37.8
78731;SHT31;68055;51.978;5.658;2023-04-25T15:54:07;14.2;39.5
78731;SHT31;68055;51.978;5.658;2023-04-25T15:56:39;14.2;38.5
78731;SHT31;68055;51.978;5.658;2023-04-25T15:59:10;14.2;38.6
78731;SHT31;68055;51.978;5.658;2023-04-25T16:01:40;14.1;40.1
78731;SHT31;68055;51.978;5.658;2023-04-25T16:04:10;14.1;38.6
78731;SHT31;68055;51.978;5.658;2023-04-25T16:06:42;14.1;39.8
78731;SHT31;68055;51.978;5.658;2023-04-25T16:09:12;14.0;40.2
78731;SHT31;68055;51.978;5.658;2023-04-25T16:11:41;14.0;40.2
78731;SHT31;68055;51.978;5.658;2023-04-25T16:14:12;14.0;39.7
78731;SHT31;68055;51.978;5.658;2023-04-25T16:16:41;14.0;39.5
78731;SHT31;68055;51.978;5.658;2023-04-25T16:19:11;14.0;38.0
78731;SHT31;68055;51.978;5.658;2023-04-25T16:21:42;13.9;39.2
78731;SHT31;68055;51.978;5.658;2023-04-25T16:24:12;13.9;38.8